sensor_id;sensor_type;location;lat;lon;timestamp;pressure;altitude;pressure_sealevel;temperature;humidity
25232;BME280;13176;51.140;6.290;2022-10-16T00:02:16;100425.13;;;17.73;83.01
25232;BME280;13176;51.140;6.290;2022-10-16T00:04:42;100423.00;;;17.62;83.46
25232;BME280;13176;51.140;6.290;2022-10-16T00:07:09;100361.50;;;17.23;83.57
25232;BME280;13176;51.140;6.290;2022-10-16T00:09:35;100414.72;;;17.51;83.39
25232;BME280;13176;51.140;6.290;2022-10-16T00:12:01;100388.50;;;17.28;83.61
25232;BME280;13176;51.140;6.290;2022-10-16T00:14:30;100389.06;;;17.36;83.85
25232;BME280;13176;51.140;6.290;2022-10-16T00:16:56;100416.13;;;17.58;83.46
25232;BME280;13176;51.140;6.290;2022-10-16T00:19:22;100368.19;;;17.30;83.45
25232;BME280;13176;51.140;6.290;2022-10-16T00:21:48;100397.03;;;17.53;83.54
25232;BME280;13176;51.140;6.290;2022-10-16T00:24:15;100395.44;;;17.49;83.69
25232;BME280;13176;51.140;6.290;2022-10-16T00:26:41;100404.16;;;17.51;83.49
25232;BME280;13176;51.140;6.290;2022-10-16T00:29:08;100404.28;;;17.48;83.57
25232;BME280;13176;51.140;6.290;2022-10-16T00:31:35;100322.28;;;16.98;83.67
25232;BME280;13176;51.140;6.290;2022-10-16T00:34:02;100390.53;;;17.42;83.45
25232;BME280;13176;51.140;6.290;2022-10-16T00:36:28;100412.56;;;17.59;83.26
25232;BME280;13176;51.140;6.290;2022-10-16T00:38:56;100422.94;;;17.64;83.34
25232;BME280;13176;51.140;6.290;2022-10-16T00:41:26;100397.16;;;17.50;83.30
25232;BME280;13176;51.140;6.290;2022-10-16T00:43:55;100360.28;;;17.30;83.27
25232;BME280;13176;51.140;6.290;2022-10-16T00:46:27;100414.28;;;17.60;83.45
25232;BME280;13176;51.140;6.290;2022-10-16T00:48:58;100407.28;;;17.59;83.73
25232;BME280;13176;51.140;6.290;2022-10-16T00:51:30;100412.72;;;17.56;83.73
25232;BME280;13176;51.140;6.290;2022-10-16T00:53:59;100388.63;;;17.45;83.52
25232;BME280;13176;51.140;6.290;2022-10-16T00:56:26;100398.31;;;17.45;83.65
25232;BME280;13176;51.140;6.290;2022-10-16T00:58:52;100389.56;;;17.44;83.43
25232;BME280;13176;51.140;6.290;2022-10-16T01:01:19;100383.91;;;17.33;83.09
25232;BME280;13176;51.140;6.290;2022-10-16T01:03:45;100373.25;;;17.16;83.30
25232;BME280;13176;51.140;6.290;2022-10-16T01:06:21;100430.69;;;17.48;83.75
25232;BME280;13176;51.140;6.290;2022-10-16T01:14:22;100437.97;;;17.43;83.38
25232;BME280;13176;51.140;6.290;2022-10-16T01:17:04;100422.69;;;17.31;83.44
25232;BME280;13176;51.140;6.290;2022-10-16T01:19:42;100435.25;;;17.45;83.15
25232;BME280;13176;51.140;6.290;2022-10-16T01:22:11;100402.56;;;17.29;82.95
25232;BME280;13176;51.140;6.290;2022-10-16T01:24:43;100432.84;;;17.40;83.14
25232;BME280;13176;51.140;6.290;2022-10-16T01:27:26;100436.41;;;17.39;83.31
25232;BME280;13176;51.140;6.290;2022-10-16T01:30:10;100434.56;;;17.41;83.25
25232;BME280;13176;51.140;6.290;2022-10-16T01:32:40;100434.69;;;17.38;83.33
25232;BME280;13176;51.140;6.290;2022-10-16T01:35:27;100446.81;;;17.42;83.25
25232;BME280;13176;51.140;6.290;2022-10-16T01:38:12;100432.97;;;17.37;82.83
25232;BME280;13176;51.140;6.290;2022-10-16T01:40:45;100458.03;;;17.47;82.91
25232;BME280;13176;51.140;6.290;2022-10-16T01:43:15;100402.84;;;17.23;82.48
25232;BME280;13176;51.140;6.290;2022-10-16T01:45:44;100448.41;;;17.46;82.83
25232;BME280;13176;51.140;6.290;2022-10-16T01:48:14;100415.13;;;17.24;82.68
25232;BME280;13176;51.140;6.290;2022-10-16T01:50:44;100437.06;;;17.44;82.56
25232;BME280;13176;51.140;6.290;2022-10-16T01:53:15;100407.75;;;17.30;81.59
25232;BME280;13176;51.140;6.290;2022-10-16T01:55:45;100438.81;;;17.44;82.06
25232;BME280;13176;51.140;6.290;2022-10-16T01:58:14;100423.53;;;17.32;82.17
25232;BME280;13176;51.140;6.290;2022-10-16T02:00:43;100405.94;;;17.13;81.84
25232;BME280;13176;51.140;6.290;2022-10-16T02:03:12;100458.03;;;17.47;81.49
25232;BME280;13176;51.140;6.290;2022-10-16T02:05:46;100331.31;;;16.74;80.98
25232;BME280;13176;51.140;6.290;2022-10-16T02:08:13;100432.69;;;17.43;80.22
25232;BME280;13176;51.140;6.290;2022-10-16T02:10:40;100455.06;;;17.53;80.48
25232;BME280;13176;51.140;6.290;2022-10-16T02:13:11;100402.72;;;17.26;80.25
25232;BME280;13176;51.140;6.290;2022-10-16T02:15:39;100446.22;;;17.36;80.43
25232;BME280;13176;51.140;6.290;2022-10-16T02:18:06;100431.25;;;17.36;79.79
25232;BME280;13176;51.140;6.290;2022-10-16T02:20:46;100405.13;;;17.30;79.81
25232;BME280;13176;51.140;6.290;2022-10-16T02:23:19;100429.28;;;17.41;79.79
25232;BME280;13176;51.140;6.290;2022-10-16T02:25:50;100418.25;;;17.32;79.41
25232;BME280;13176;51.140;6.290;2022-10-16T02:28:30;100420.16;;;17.28;79.29
25232;BME280;13176;51.140;6.290;2022-10-16T02:31:01;100446.22;;;17.54;78.46
25232;BME280;13176;51.140;6.290;2022-10-16T02:33:30;100450.66;;;17.54;78.65
25232;BME280;13176;51.140;6.290;2022-10-16T02:35:58;100420.94;;;17.30;78.83
25232;BME280;13176;51.140;6.290;2022-10-16T02:38:25;100412.66;;;17.39;78.59
25232;BME280;13176;51.140;6.290;2022-10-16T02:40:52;100410.16;;;17.36;78.32
25232;BME280;13176;51.140;6.290;2022-10-16T02:43:19;100418.72;;;17.41;79.02
25232;BME280;13176;51.140;6.290;2022-10-16T02:45:45;100407.13;;;17.25;78.54
25232;BME280;13176;51.140;6.290;2022-10-16T02:48:11;100411.59;;;17.23;78.63
25232;BME280;13176;51.140;6.290;2022-10-16T02:50:38;100437.91;;;17.45;78.77
25232;BME280;13176;51.140;6.290;2022-10-16T02:53:04;100456.94;;;17.51;79.05
25232;BME280;13176;51.140;6.290;2022-10-16T02:55:31;100450.09;;;17.47;78.23
25232;BME280;13176;51.140;6.290;2022-10-16T02:57:57;100459.69;;;17.48;78.95
25232;BME280;13176;51.140;6.290;2022-10-16T03:00:23;100432.09;;;17.37;78.63
25232;BME280;13176;51.140;6.290;2022-10-16T03:02:50;100436.13;;;17.45;78.20
25232;BME280;13176;51.140;6.290;2022-10-16T03:05:16;100404.97;;;17.15;78.39
25232;BME280;13176;51.140;6.290;2022-10-16T03:07:43;100407.53;;;17.16;78.54
25232;BME280;13176;51.140;6.290;2022-10-16T03:10:09;100408.13;;;17.23;78.33
25232;BME280;13176;51.140;6.290;2022-10-16T03:12:36;100301.16;;;16.61;78.24
25232;BME280;13176;51.140;6.290;2022-10-16T03:15:03;100392.06;;;17.09;78.31
25232;BME280;13176;51.140;6.290;2022-10-16T03:17:29;100409.97;;;17.21;78.75
25232;BME280;13176;51.140;6.290;2022-10-16T03:19:57;100420.44;;;17.22;78.94
25232;BME280;13176;51.140;6.290;2022-10-16T03:22:24;100423.06;;;17.22;78.11
25232;BME280;13176;51.140;6.290;2022-10-16T03:24:50;100392.28;;;17.05;77.96
25232;BME280;13176;51.140;6.290;2022-10-16T03:27:17;100447.22;;;17.33;78.14
25232;BME280;13176;51.140;6.290;2022-10-16T03:29:43;100436.00;;;17.28;78.07
25232;BME280;13176;51.140;6.290;2022-10-16T03:32:09;100416.34;;;17.15;78.09
25232;BME280;13176;51.140;6.290;2022-10-16T03:34:36;100456.16;;;17.29;78.53
25232;BME280;13176;51.140;6.290;2022-10-16T03:37:02;100397.81;;;16.99;78.56
25232;BME280;13176;51.140;6.290;2022-10-16T03:39:28;100457.00;;;17.30;78.87
25232;BME280;13176;51.140;6.290;2022-10-16T03:41:55;100413.22;;;17.08;78.37
25232;BME280;13176;51.140;6.290;2022-10-16T03:44:21;100452.59;;;17.30;77.99
25232;BME280;13176;51.140;6.290;2022-10-16T03:46:48;100408.38;;;16.99;78.32
25232;BME280;13176;51.140;6.290;2022-10-16T03:49:14;100437.44;;;17.15;78.38
25232;BME280;13176;51.140;6.290;2022-10-16T03:51:40;100444.44;;;17.16;78.33
25232;BME280;13176;51.140;6.290;2022-10-16T03:54:07;100462.72;;;17.21;78.64
25232;BME280;13176;51.140;6.290;2022-10-16T03:56:33;100471.56;;;17.20;78.67
25232;BME280;13176;51.140;6.290;2022-10-16T03:58:59;100456.13;;;17.11;78.71
25232;BME280;13176;51.140;6.290;2022-10-16T04:01:26;100463.69;;;17.18;78.52
25232;BME280;13176;51.140;6.290;2022-10-16T04:03:52;100432.88;;;17.01;78.63
25232;BME280;13176;51.140;6.290;2022-10-16T04:06:18;100477.47;;;17.25;78.53
25232;BME280;13176;51.140;6.290;2022-10-16T04:08:45;100445.06;;;17.03;78.25
25232;BME280;13176;51.140;6.290;2022-10-16T04:11:11;100410.75;;;16.85;78.32
25232;BME280;13176;51.140;6.290;2022-10-16T04:13:38;100448.69;;;17.01;78.28
25232;BME280;13176;51.140;6.290;2022-10-16T04:16:04;100502.31;;;17.19;78.40
25232;BME280;13176;51.140;6.290;2022-10-16T04:18:31;100469.03;;;16.97;78.57
25232;BME280;13176;51.140;6.290;2022-10-16T04:21:02;100497.00;;;17.01;78.79
25232;BME280;13176;51.140;6.290;2022-10-16T04:23:29;100466.41;;;16.97;78.70
25232;BME280;13176;51.140;6.290;2022-10-16T04:25:55;100341.44;;;16.23;78.87
25232;BME280;13176;51.140;6.290;2022-10-16T04:28:22;100471.63;;;16.99;79.14
25232;BME280;13176;51.140;6.290;2022-10-16T04:30:48;100485.22;;;17.10;79.25
25232;BME280;13176;51.140;6.290;2022-10-16T04:33:14;100460.63;;;16.89;79.19
25232;BME280;13176;51.140;6.290;2022-10-16T04:35:41;100470.44;;;16.86;79.83
25232;BME280;13176;51.140;6.290;2022-10-16T04:38:07;100504.06;;;17.01;79.57
25232;BME280;13176;51.140;6.290;2022-10-16T04:40:34;100509.38;;;16.99;79.75
25232;BME280;13176;51.140;6.290;2022-10-16T04:43:03;100424.81;;;16.44;80.05
25232;BME280;13176;51.140;6.290;2022-10-16T04:45:30;100521.97;;;16.93;80.05
25232;BME280;13176;51.140;6.290;2022-10-16T04:47:57;100538.34;;;17.01;80.40
25232;BME280;13176;51.140;6.290;2022-10-16T04:50:24;100500.09;;;16.71;80.67
25232;BME280;13176;51.140;6.290;2022-10-16T04:52:50;100487.66;;;16.53;81.00
25232;BME280;13176;51.140;6.290;2022-10-16T04:55:17;100493.63;;;16.58;81.10
25232;BME280;13176;51.140;6.290;2022-10-16T04:57:43;100476.94;;;16.57;80.73
25232;BME280;13176;51.140;6.290;2022-10-16T05:00:10;100487.28;;;16.62;80.91
25232;BME280;13176;51.140;6.290;2022-10-16T05:02:36;100519.97;;;16.78;81.05
25232;BME280;13176;51.140;6.290;2022-10-16T05:05:03;100494.41;;;16.60;81.05
25232;BME280;13176;51.140;6.290;2022-10-16T05:07:29;100533.09;;;16.79;81.10
25232;BME280;13176;51.140;6.290;2022-10-16T05:09:56;100540.81;;;16.84;81.28
25232;BME280;13176;51.140;6.290;2022-10-16T05:12:22;100535.66;;;16.81;81.51
25232;BME280;13176;51.140;6.290;2022-10-16T05:14:48;100558.09;;;16.91;81.54
25232;BME280;13176;51.140;6.290;2022-10-16T05:17:15;100547.78;;;16.85;81.35
25232;BME280;13176;51.140;6.290;2022-10-16T05:19:41;100518.66;;;16.68;80.94
25232;BME280;13176;51.140;6.290;2022-10-16T05:22:07;100511.69;;;16.67;81.20
25232;BME280;13176;51.140;6.290;2022-10-16T05:24:34;100563.25;;;16.94;81.33
25232;BME280;13176;51.140;6.290;2022-10-16T05:27:00;100544.50;;;16.80;81.44
25232;BME280;13176;51.140;6.290;2022-10-16T05:29:27;100563.25;;;16.94;81.31
25232;BME280;13176;51.140;6.290;2022-10-16T05:31:53;100541.22;;;16.75;81.36
25232;BME280;13176;51.140;6.290;2022-10-16T05:34:20;100586.16;;;16.92;81.59
25232;BME280;13176;51.140;6.290;2022-10-16T05:36:46;100554.19;;;16.79;80.89
25232;BME280;13176;51.140;6.290;2022-10-16T05:39:15;100555.16;;;16.77;81.34
25232;BME280;13176;51.140;6.290;2022-10-16T05:41:42;100548.16;;;16.76;81.33
25232;BME280;13176;51.140;6.290;2022-10-16T05:44:08;100557.66;;;16.80;81.54
25232;BME280;13176;51.140;6.290;2022-10-16T05:46:35;100558.00;;;16.72;81.79
25232;BME280;13176;51.140;6.290;2022-10-16T05:49:01;100558.88;;;16.73;81.87
25232;BME280;13176;51.140;6.290;2022-10-16T05:51:28;100521.88;;;16.54;81.72
25232;BME280;13176;51.140;6.290;2022-10-16T05:53:54;100512.53;;;16.46;81.96
25232;BME280;13176;51.140;6.290;2022-10-16T05:56:20;100574.28;;;16.82;82.25
25232;BME280;13176;51.140;6.290;2022-10-16T05:58:47;100601.84;;;16.95;82.23
25232;BME280;13176;51.140;6.290;2022-10-16T06:01:15;100578.75;;;16.80;81.94
25232;BME280;13176;51.140;6.290;2022-10-16T06:03:43;100606.00;;;17.00;81.53
25232;BME280;13176;51.140;6.290;2022-10-16T06:08:40;100588.00;;;16.90;81.51
25232;BME280;13176;51.140;6.290;2022-10-16T06:11:09;100613.66;;;17.06;81.36
25232;BME280;13176;51.140;6.290;2022-10-16T06:13:37;100568.09;;;16.83;80.92
25232;BME280;13176;51.140;6.290;2022-10-16T06:16:05;100598.69;;;16.87;81.58
25232;BME280;13176;51.140;6.290;2022-10-16T06:18:31;100596.84;;;16.89;82.02
25232;BME280;13176;51.140;6.290;2022-10-16T06:20:58;100580.31;;;16.64;82.11
25232;BME280;13176;51.140;6.290;2022-10-16T06:23:25;100622.94;;;16.95;82.57
25232;BME280;13176;51.140;6.290;2022-10-16T06:25:52;100594.97;;;16.71;83.11
25232;BME280;13176;51.140;6.290;2022-10-16T06:28:18;100576.53;;;16.71;82.85
25232;BME280;13176;51.140;6.290;2022-10-16T06:30:44;100613.00;;;16.80;82.69
25232;BME280;13176;51.140;6.290;2022-10-16T06:33:12;100650.78;;;17.02;82.85
25232;BME280;13176;51.140;6.290;2022-10-16T06:35:38;100633.84;;;16.86;82.97
25232;BME280;13176;51.140;6.290;2022-10-16T06:38:04;100633.84;;;16.86;83.01
25232;BME280;13176;51.140;6.290;2022-10-16T06:40:31;100609.97;;;16.69;83.25
25232;BME280;13176;51.140;6.290;2022-10-16T06:42:57;100662.50;;;16.95;83.48
25232;BME280;13176;51.140;6.290;2022-10-16T06:45:24;100668.56;;;16.97;82.82
25232;BME280;13176;51.140;6.290;2022-10-16T06:47:50;100586.94;;;16.52;82.58
25232;BME280;13176;51.140;6.290;2022-10-16T06:50:16;100580.09;;;16.47;82.76
25232;BME280;13176;51.140;6.290;2022-10-16T06:52:43;100647.28;;;16.80;82.70
25232;BME280;13176;51.140;6.290;2022-10-16T06:55:09;100681.75;;;16.97;82.60
25232;BME280;13176;51.140;6.290;2022-10-16T06:57:35;100672.47;;;16.87;82.95
25232;BME280;13176;51.140;6.290;2022-10-16T07:00:03;100657.19;;;16.75;82.71
25232;BME280;13176;51.140;6.290;2022-10-16T07:02:29;100664.28;;;16.73;82.87
25232;BME280;13176;51.140;6.290;2022-10-16T07:04:55;100673.63;;;16.80;82.77
25232;BME280;13176;51.140;6.290;2022-10-16T07:07:23;100677.31;;;16.76;82.66
25232;BME280;13176;51.140;6.290;2022-10-16T07:09:50;100688.81;;;16.75;82.82
25232;BME280;13176;51.140;6.290;2022-10-16T07:12:17;100710.38;;;16.84;83.03
25232;BME280;13176;51.140;6.290;2022-10-16T07:14:43;100683.88;;;16.66;82.90
25232;BME280;13176;51.140;6.290;2022-10-16T07:17:10;100702.63;;;16.80;83.31
25232;BME280;13176;51.140;6.290;2022-10-16T07:19:36;100717.47;;;16.82;83.30
25232;BME280;13176;51.140;6.290;2022-10-16T07:22:03;100690.88;;;16.67;83.18
25232;BME280;13176;51.140;6.290;2022-10-16T07:24:29;100740.66;;;16.96;83.20
25232;BME280;13176;51.140;6.290;2022-10-16T07:26:56;100689.03;;;16.69;83.54
25232;BME280;13176;51.140;6.290;2022-10-16T07:29:22;100748.47;;;16.99;83.54
25232;BME280;13176;51.140;6.290;2022-10-16T07:31:49;100698.47;;;16.74;83.33
25232;BME280;13176;51.140;6.290;2022-10-16T07:34:17;100750.66;;;17.09;83.26
25232;BME280;13176;51.140;6.290;2022-10-16T07:36:47;100707.31;;;16.95;83.41
25232;BME280;13176;51.140;6.290;2022-10-16T07:39:14;100703.03;;;16.92;83.04
25232;BME280;13176;51.140;6.290;2022-10-16T07:41:40;100668.63;;;16.74;82.99
25232;BME280;13176;51.140;6.290;2022-10-16T07:44:07;100643.31;;;16.70;82.97
25232;BME280;13176;51.140;6.290;2022-10-16T07:46:35;100726.34;;;17.24;82.99
25232;BME280;13176;51.140;6.290;2022-10-16T07:49:03;100748.41;;;17.21;82.57
25232;BME280;13176;51.140;6.290;2022-10-16T07:51:29;100706.56;;;17.13;82.71
25232;BME280;13176;51.140;6.290;2022-10-16T07:53:56;100748.56;;;17.40;82.85
25232;BME280;13176;51.140;6.290;2022-10-16T07:56:22;100724.25;;;17.32;82.71
25232;BME280;13176;51.140;6.290;2022-10-16T07:58:49;100760.47;;;17.50;82.49
25232;BME280;13176;51.140;6.290;2022-10-16T08:01:17;100761.19;;;17.53;82.54
25232;BME280;13176;51.140;6.290;2022-10-16T08:03:45;100778.31;;;17.65;83.04
25232;BME280;13176;51.140;6.290;2022-10-16T08:06:12;100765.28;;;17.60;82.81
25232;BME280;13176;51.140;6.290;2022-10-16T08:08:39;100778.66;;;17.77;82.43
25232;BME280;13176;51.140;6.290;2022-10-16T08:11:05;100731.22;;;17.54;83.03
25232;BME280;13176;51.140;6.290;2022-10-16T08:13:32;100773.06;;;17.85;82.87
25232;BME280;13176;51.140;6.290;2022-10-16T08:15:58;100689.66;;;17.39;82.10
25232;BME280;13176;51.140;6.290;2022-10-16T08:18:25;100674.75;;;17.38;81.32
25232;BME280;13176;51.140;6.290;2022-10-16T08:20:56;100747.66;;;17.82;81.71
25232;BME280;13176;51.140;6.290;2022-10-16T08:23:23;100764.78;;;17.92;82.00
25232;BME280;13176;51.140;6.290;2022-10-16T08:26:00;100788.72;;;18.09;81.34
25232;BME280;13176;51.140;6.290;2022-10-16T08:28:35;100807.38;;;18.26;81.15
25232;BME280;13176;51.140;6.290;2022-10-16T08:31:13;100787.94;;;18.27;79.69
25232;BME280;13176;51.140;6.290;2022-10-16T08:33:41;100777.75;;;18.18;79.83
25232;BME280;13176;51.140;6.290;2022-10-16T08:36:09;100831.28;;;18.43;79.37
25232;BME280;13176;51.140;6.290;2022-10-16T08:38:37;100808.44;;;18.42;78.17
25232;BME280;13176;51.140;6.290;2022-10-16T08:46:44;100801.63;;;18.75;76.08
25232;BME280;13176;51.140;6.290;2022-10-16T08:49:16;100809.84;;;18.69;75.80
25232;BME280;13176;51.140;6.290;2022-10-16T08:51:43;100785.75;;;18.56;74.29
25232;BME280;13176;51.140;6.290;2022-10-16T08:54:21;100868.50;;;19.35;73.65
25232;BME280;13176;51.140;6.290;2022-10-16T08:56:49;100868.78;;;19.29;73.82
25232;BME280;13176;51.140;6.290;2022-10-16T08:59:16;100821.38;;;19.05;73.00
25232;BME280;13176;51.140;6.290;2022-10-16T09:01:47;100845.19;;;19.25;72.85
25232;BME280;13176;51.140;6.290;2022-10-16T09:07:18;100830.91;;;19.46;71.62
25232;BME280;13176;51.140;6.290;2022-10-16T09:12:37;100868.91;;;19.45;70.60
25232;BME280;13176;51.140;6.290;2022-10-16T09:25:31;100892.47;;;19.86;68.52
25232;BME280;13176;51.140;6.290;2022-10-16T09:27:58;100858.56;;;19.75;69.28
25232;BME280;13176;51.140;6.290;2022-10-16T09:30:28;100901.53;;;19.63;68.64
25232;BME280;13176;51.140;6.290;2022-10-16T09:32:57;100872.44;;;19.80;68.56
25232;BME280;13176;51.140;6.290;2022-10-16T09:35:35;100889.06;;;20.02;67.78
25232;BME280;13176;51.140;6.290;2022-10-16T09:38:02;100897.16;;;19.99;67.44
25232;BME280;13176;51.140;6.290;2022-10-16T09:40:34;100784.09;;;19.64;65.82
25232;BME280;13176;51.140;6.290;2022-10-16T09:46:02;100845.28;;;20.29;66.36
25232;BME280;13176;51.140;6.290;2022-10-16T09:48:50;100760.44;;;19.95;66.74
25232;BME280;13176;51.140;6.290;2022-10-16T09:54:01;100845.41;;;20.43;64.79
25232;BME280;13176;51.140;6.290;2022-10-16T09:56:33;100831.81;;;20.49;64.20
25232;BME280;13176;51.140;6.290;2022-10-16T09:59:12;100863.56;;;20.67;65.50
25232;BME280;13176;51.140;6.290;2022-10-16T10:04:07;100772.91;;;19.93;63.09
25232;BME280;13176;51.140;6.290;2022-10-16T10:06:36;100849.19;;;20.71;62.62
25232;BME280;13176;51.140;6.290;2022-10-16T10:09:22;100890.00;;;20.86;63.42
25232;BME280;13176;51.140;6.290;2022-10-16T10:11:57;100873.78;;;20.92;63.46
25232;BME280;13176;51.140;6.290;2022-10-16T10:14:41;100855.31;;;21.06;61.75
25232;BME280;13176;51.140;6.290;2022-10-16T10:17:13;100722.25;;;21.57;57.35
25232;BME280;13176;51.140;6.290;2022-10-16T10:19:44;100874.22;;;24.19;50.59
25232;BME280;13176;51.140;6.290;2022-10-16T10:28:06;100883.69;;;28.93;39.60
25232;BME280;13176;51.140;6.290;2022-10-16T10:34:16;100828.81;;;29.34;37.48
25232;BME280;13176;51.140;6.290;2022-10-16T10:36:54;100839.81;;;28.72;38.30
25232;BME280;13176;51.140;6.290;2022-10-16T10:39:32;100845.13;;;27.46;40.02
25232;BME280;13176;51.140;6.290;2022-10-16T10:42:25;100878.22;;;25.87;43.48
25232;BME280;13176;51.140;6.290;2022-10-16T10:50:49;100864.41;;;23.80;47.80
25232;BME280;13176;51.140;6.290;2022-10-16T10:53:44;100882.19;;;24.06;50.14
25232;BME280;13176;51.140;6.290;2022-10-16T10:56:22;100892.69;;;24.22;50.57
25232;BME280;13176;51.140;6.290;2022-10-16T10:59:08;100898.84;;;25.12;46.74
25232;BME280;13176;51.140;6.290;2022-10-16T11:01:50;100830.41;;;25.47;45.19
25232;BME280;13176;51.140;6.290;2022-10-16T11:04:34;100910.59;;;25.47;45.89
25232;BME280;13176;51.140;6.290;2022-10-16T11:07:04;100807.75;;;24.16;48.21
25232;BME280;13176;51.140;6.290;2022-10-16T11:09:36;100814.53;;;23.54;49.73
25232;BME280;13176;51.140;6.290;2022-10-16T11:12:26;100913.44;;;23.50;50.83
25232;BME280;13176;51.140;6.290;2022-10-16T11:15:11;100885.28;;;22.90;50.84
25232;BME280;13176;51.140;6.290;2022-10-16T11:17:44;100897.03;;;23.00;52.10
25232;BME280;13176;51.140;6.290;2022-10-16T11:20:23;100847.56;;;22.68;50.76
25232;BME280;13176;51.140;6.290;2022-10-16T11:23:05;100889.28;;;23.11;50.03
25232;BME280;13176;51.140;6.290;2022-10-16T11:25:35;100872.19;;;23.29;49.62
25232;BME280;13176;51.140;6.290;2022-10-16T11:28:11;100899.75;;;23.14;50.68
25232;BME280;13176;51.140;6.290;2022-10-16T11:33:31;100900.13;;;23.36;52.06
25232;BME280;13176;51.140;6.290;2022-10-16T11:36:21;100917.63;;;23.40;52.64
25232;BME280;13176;51.140;6.290;2022-10-16T11:41:33;100887.94;;;23.60;49.80
25232;BME280;13176;51.140;6.290;2022-10-16T11:46:40;100885.19;;;24.02;48.31
25232;BME280;13176;51.140;6.290;2022-10-16T11:49:31;100910.03;;;24.02;47.53
25232;BME280;13176;51.140;6.290;2022-10-16T11:54:54;100927.09;;;23.72;49.53
25232;BME280;13176;51.140;6.290;2022-10-16T11:57:32;100892.16;;;23.22;50.85
25232;BME280;13176;51.140;6.290;2022-10-16T12:00:08;100895.84;;;23.19;48.89
25232;BME280;13176;51.140;6.290;2022-10-16T12:02:44;100918.38;;;23.84;48.36
25232;BME280;13176;51.140;6.290;2022-10-16T12:08:08;100911.38;;;23.95;46.24
25232;BME280;13176;51.140;6.290;2022-10-16T12:10:37;100921.69;;;23.73;47.24
25232;BME280;13176;51.140;6.290;2022-10-16T12:16:19;100889.19;;;23.95;48.91
25232;BME280;13176;51.140;6.290;2022-10-16T12:18:47;100904.66;;;24.16;48.35
25232;BME280;13176;51.140;6.290;2022-10-16T12:21:16;100910.50;;;24.47;49.01
25232;BME280;13176;51.140;6.290;2022-10-16T12:23:53;100898.38;;;24.56;49.21
25232;BME280;13176;51.140;6.290;2022-10-16T12:26:28;100886.63;;;24.58;49.28
25232;BME280;13176;51.140;6.290;2022-10-16T12:29:14;100876.72;;;24.60;49.50
25232;BME280;13176;51.140;6.290;2022-10-16T12:31:45;100912.41;;;24.45;47.23
25232;BME280;13176;51.140;6.290;2022-10-16T12:34:36;100912.47;;;25.70;45.03
25232;BME280;13176;51.140;6.290;2022-10-16T12:37:14;100896.25;;;26.20;42.90
25232;BME280;13176;51.140;6.290;2022-10-16T12:39:41;100867.75;;;25.72;42.83
25232;BME280;13176;51.140;6.290;2022-10-16T12:42:30;100919.28;;;25.86;44.17
25232;BME280;13176;51.140;6.290;2022-10-16T12:44:57;100874.47;;;24.79;45.71
25232;BME280;13176;51.140;6.290;2022-10-16T12:47:36;100894.78;;;24.69;47.60
25232;BME280;13176;51.140;6.290;2022-10-16T12:50:23;100861.13;;;24.40;47.19
25232;BME280;13176;51.140;6.290;2022-10-16T12:52:50;100866.84;;;24.22;47.96
25232;BME280;13176;51.140;6.290;2022-10-16T12:55:18;100851.97;;;24.44;49.54
25232;BME280;13176;51.140;6.290;2022-10-16T13:01:29;100906.78;;;25.26;48.73
25232;BME280;13176;51.140;6.290;2022-10-16T13:04:39;100913.13;;;25.61;48.70
25232;BME280;13176;51.140;6.290;2022-10-16T13:07:20;100913.56;;;25.55;45.40
25232;BME280;13176;51.140;6.290;2022-10-16T13:13:01;100910.75;;;25.21;47.31
25232;BME280;13176;51.140;6.290;2022-10-16T13:15:56;100908.25;;;25.05;46.99
25232;BME280;13176;51.140;6.290;2022-10-16T13:21:50;100909.72;;;24.84;46.83
25232;BME280;13176;51.140;6.290;2022-10-16T13:24:44;100906.72;;;24.76;47.68
25232;BME280;13176;51.140;6.290;2022-10-16T13:27:35;100902.03;;;24.67;50.06
25232;BME280;13176;51.140;6.290;2022-10-16T13:30:16;100859.88;;;24.33;48.04
25232;BME280;13176;51.140;6.290;2022-10-16T13:32:46;100916.13;;;24.57;49.86
25232;BME280;13176;51.140;6.290;2022-10-16T13:35:22;100862.41;;;24.35;48.86
25232;BME280;13176;51.140;6.290;2022-10-16T13:37:49;100899.91;;;24.72;49.10
25232;BME280;13176;51.140;6.290;2022-10-16T13:40:20;100916.34;;;24.66;48.87
25232;BME280;13176;51.140;6.290;2022-10-16T13:42:49;100881.25;;;24.46;49.23
25232;BME280;13176;51.140;6.290;2022-10-16T13:45:24;100899.25;;;24.42;48.48
25232;BME280;13176;51.140;6.290;2022-10-16T13:48:02;100922.81;;;24.24;49.10
25232;BME280;13176;51.140;6.290;2022-10-16T13:50:28;100888.31;;;23.94;49.58
25232;BME280;13176;51.140;6.290;2022-10-16T13:53:05;100884.69;;;23.55;51.01
25232;BME280;13176;51.140;6.290;2022-10-16T13:55:32;100909.25;;;23.46;49.55
25232;BME280;13176;51.140;6.290;2022-10-16T13:58:07;100859.44;;;23.20;50.94
25232;BME280;13176;51.140;6.290;2022-10-16T14:00:34;100913.44;;;23.50;52.23
25232;BME280;13176;51.140;6.290;2022-10-16T14:03:04;100925.13;;;23.75;52.26
25232;BME280;13176;51.140;6.290;2022-10-16T14:05:31;100907.31;;;23.90;54.11
25232;BME280;13176;51.140;6.290;2022-10-16T14:07:58;100883.22;;;24.04;55.09
25232;BME280;13176;51.140;6.290;2022-10-16T14:10:28;100876.00;;;24.06;52.10
25232;BME280;13176;51.140;6.290;2022-10-16T14:13:05;100922.56;;;24.14;50.85
25232;BME280;13176;51.140;6.290;2022-10-16T14:15:34;100933.44;;;24.11;50.88
25232;BME280;13176;51.140;6.290;2022-10-16T14:18:01;100923.66;;;23.98;51.38
25232;BME280;13176;51.140;6.290;2022-10-16T14:20:31;100930.75;;;23.85;50.87
25232;BME280;13176;51.140;6.290;2022-10-16T14:23:19;100902.03;;;23.48;51.10
25232;BME280;13176;51.140;6.290;2022-10-16T14:25:46;100879.59;;;23.24;51.67
25232;BME280;13176;51.140;6.290;2022-10-16T14:30:52;100926.56;;;23.67;53.47